Acesita, Brazil
Current Conditions -  °F | °C
As of 7:00 AM on Thursday 23 Oct 2014 (Local Time) from SBCF Reporting Station
Broken Clouds Broken Clouds  
Wind Chill: 64°   Ceiling: 2000
Heat Index: 64°   Visibility: 6mi
Dew Point: 57°   Wind: 10mph
Humidity: 77%   Direction: 100°E
Pressure: 30.18"   Gusts: NA
Location:  19.53°S, 42.63°W
Report Text: SBCF 230900Z 10009KT 9999 FEW010 BKN020 18/14 Q1022
Loading
Personal Weather Stations






























Interactive Weather Map
Tropical Storm Tracking
New forecast layout! Learn more

10-Day Weather Forecast

Advertisements
Track Severe Weather on mobile